createdAt,value
2018-09-19T00:00:38.732Z,18.8
2018-09-19T00:05:39.594Z,18.8
2018-09-19T00:10:38.575Z,18.7
2018-09-19T00:15:38.645Z,18.7
2018-09-19T00:20:38.679Z,18.6
2018-09-19T00:25:40.807Z,18.5
2018-09-19T00:30:40.667Z,18.4
2018-09-19T00:35:40.717Z,18.4
2018-09-19T00:40:40.760Z,18.4
2018-09-19T00:45:40.681Z,18.4
2018-09-19T00:50:40.545Z,18.3
2018-09-19T00:55:40.758Z,18.3
2018-09-19T01:00:41.881Z,18.2
2018-09-19T01:05:41.703Z,18.2
2018-09-19T01:10:53.894Z,18.2
2018-09-19T01:15:53.714Z,18.1
2018-09-19T01:20:53.837Z,18.3
2018-09-19T01:25:53.754Z,18.2
2018-09-19T01:30:53.799Z,18.2
2018-09-19T01:35:53.601Z,18.2
2018-09-19T01:40:53.618Z,18.2
2018-09-19T01:45:54.828Z,18.2
2018-09-19T01:50:54.754Z,18.2
2018-09-19T01:56:07.415Z,18.1
2018-09-19T02:01:07.135Z,18
2018-09-19T02:06:07.360Z,18
2018-09-19T02:11:07.486Z,18
2018-09-19T02:16:07.262Z,18
2018-09-19T02:21:07.301Z,18
2018-09-19T02:26:07.589Z,17.9
2018-09-19T02:31:12.904Z,17.9
2018-09-19T02:36:12.543Z,17.8
2018-09-19T02:41:25.307Z,17.8
2018-09-19T02:46:25.020Z,17.7
2018-09-19T02:51:25.169Z,17.6
2018-09-19T02:56:25.028Z,17.6
2018-09-19T03:01:25.032Z,17.6
2018-09-19T03:06:25.164Z,17.6
2018-09-19T03:11:25.033Z,17.6
2018-09-19T03:16:25.354Z,17.5
2018-09-19T03:21:25.082Z,17.4
2018-09-19T03:26:37.703Z,17.4
2018-09-19T03:31:37.517Z,17.3
2018-09-19T03:36:37.432Z,17.3
2018-09-19T03:41:37.533Z,17.3
2018-09-19T03:46:37.557Z,17.1
2018-09-19T03:51:37.443Z,17.1
2018-09-19T03:56:37.447Z,17.1
2018-09-19T04:01:37.684Z,17.1
2018-09-19T04:06:37.870Z,17.1
2018-09-19T04:11:50.277Z,17
2018-09-19T04:16:50.232Z,17.1
2018-09-19T04:21:50.127Z,17.1
2018-09-19T04:26:50.037Z,17.1
2018-09-19T04:31:50.028Z,17.1
2018-09-19T04:36:50.050Z,17.1
2018-09-19T04:41:50.084Z,17.1
2018-09-19T04:46:50.241Z,17.1
2018-09-19T04:51:50.163Z,17.1
2018-09-19T04:56:50.023Z,17.2
2018-09-19T05:01:50.246Z,17.2
2018-09-19T05:06:50.042Z,17.2
2018-09-19T05:11:52.058Z,17.2
2018-09-19T05:16:51.982Z,17.3
2018-09-19T05:22:02.048Z,17.3
2018-09-19T05:27:01.965Z,17.4
2018-09-19T05:32:02.009Z,17.4
2018-09-19T05:37:01.932Z,17.4
2018-09-19T05:42:01.775Z,17.5
2018-09-19T05:47:02.015Z,17.5
2018-09-19T05:52:01.933Z,17.6
2018-09-19T05:57:02.380Z,17.6
2018-09-19T06:02:02.091Z,17.6
2018-09-19T06:07:14.915Z,17.7
2018-09-19T06:12:14.742Z,17.8
2018-09-19T06:17:14.791Z,17.9
2018-09-19T06:22:14.839Z,17.9
2018-09-19T06:27:14.880Z,17.9
2018-09-19T06:32:14.632Z,18
2018-09-19T06:37:14.817Z,18.1
2018-09-19T06:42:14.648Z,18.1
2018-09-19T06:47:14.683Z,18.2
2018-09-19T06:52:14.706Z,18.3
2018-09-19T06:57:14.653Z,18.3
2018-09-19T07:02:14.659Z,18.4
2018-09-19T07:07:15.545Z,18.5
2018-09-19T07:12:15.213Z,18.6
2018-09-19T07:17:28.267Z,18.6
2018-09-19T07:22:28.147Z,18.7
2018-09-19T07:27:27.982Z,18.8
2018-09-19T07:32:27.977Z,18.8
2018-09-19T07:37:27.975Z,19
2018-09-19T07:42:27.999Z,19
2018-09-19T07:47:28.224Z,19.1
2018-09-19T07:52:28.007Z,19.3
2018-09-19T07:57:28.004Z,19.4
2018-09-19T08:02:40.467Z,19.4
2018-09-19T08:07:40.214Z,19.6
2018-09-19T08:12:40.204Z,19.7
2018-09-19T08:17:40.209Z,19.9
2018-09-19T08:22:40.471Z,20
2018-09-19T08:27:40.258Z,20
2018-09-19T08:32:40.524Z,20.2
2018-09-19T08:37:40.286Z,20.4
2018-09-19T08:42:40.293Z,20.4
2018-09-19T08:47:40.389Z,20.5
2018-09-19T08:52:40.444Z,20.6
2018-09-19T08:57:40.487Z,20.5
2018-09-19T09:02:41.541Z,20.4
2018-09-19T09:07:41.124Z,20.5
2018-09-19T09:12:53.141Z,20.5
2018-09-19T09:17:53.123Z,20.5
2018-09-19T09:22:53.028Z,20.6
2018-09-19T09:27:53.074Z,20.7
2018-09-19T09:32:52.885Z,20.6
2018-09-19T09:37:52.898Z,20.7
2018-09-19T09:42:53.197Z,20.6
2018-09-19T09:47:53.102Z,20.7
2018-09-19T09:52:53.368Z,20.6
2018-09-19T09:58:05.248Z,20.6
2018-09-19T10:03:04.976Z,20.6
2018-09-19T10:08:04.970Z,20.6
2018-09-19T10:13:05.161Z,20.5
2018-09-19T10:18:05.195Z,20.5
2018-09-19T10:23:04.986Z,20.5
2018-09-19T10:28:05.151Z,20.6
2018-09-19T10:33:05.204Z,20.7
2018-09-19T10:38:05.089Z,20.7
2018-09-19T10:43:05.148Z,20.8
2018-09-19T10:48:05.197Z,21.1
2018-09-19T10:53:05.225Z,21.3
2018-09-19T10:58:07.736Z,21.6
2018-09-19T11:03:07.829Z,22.1
2018-09-19T11:08:18.146Z,22.8
2018-09-19T11:13:17.849Z,23.5
2018-09-19T11:18:18.102Z,23.8
2018-09-19T11:23:17.864Z,23.8
2018-09-19T11:28:18.060Z,23.9
2018-09-19T11:33:17.982Z,23.9
2018-09-19T11:38:17.977Z,24.2
2018-09-19T11:43:18.369Z,24.1
2018-09-19T11:48:18.201Z,24.2
2018-09-19T11:53:30.732Z,24.3
2018-09-19T11:58:30.640Z,24.4
2018-09-19T12:03:30.437Z,24.7
2018-09-19T12:08:30.707Z,24.8
2018-09-19T12:13:30.838Z,25.1
2018-09-19T12:18:30.705Z,25.1
2018-09-19T12:23:30.928Z,25.2
2018-09-19T12:28:30.957Z,25.3
2018-09-19T12:33:30.874Z,25.1
2018-09-19T12:38:30.799Z,25.5
2018-09-19T12:43:30.813Z,25.6
2018-09-19T12:48:30.811Z,25.7
2018-09-19T12:53:35.274Z,25.7
2018-09-19T12:58:35.170Z,25.8
2018-09-19T13:03:45.959Z,25.9
2018-09-19T13:08:45.705Z,25.4
2018-09-19T13:13:45.644Z,25.6
2018-09-19T13:18:45.672Z,25.6
2018-09-19T13:23:45.691Z,25.9
2018-09-19T13:28:45.686Z,25.6
2018-09-19T13:33:45.849Z,25.7
2018-09-19T13:38:45.763Z,25.8
2018-09-19T13:43:45.826Z,26
2018-09-19T13:48:58.909Z,25.5
2018-09-19T13:53:58.603Z,25.5
2018-09-19T13:58:58.810Z,25.6
2018-09-19T14:03:59.050Z,25.7
2018-09-19T14:08:59.113Z,25.7
2018-09-19T14:13:58.890Z,25.7
2018-09-19T14:18:59.047Z,25.7
2018-09-19T14:23:58.898Z,25.9
2018-09-19T14:28:58.904Z,25.9
2018-09-19T14:33:58.893Z,26
2018-09-19T14:38:58.920Z,26.1
2018-09-19T14:43:58.906Z,25.9
2018-09-19T14:48:58.969Z,25.7
2018-09-19T14:53:58.896Z,25.9
2018-09-19T14:59:10.977Z,25.7
2018-09-19T15:04:10.712Z,25.6
2018-09-19T15:09:10.728Z,25.4
2018-09-19T15:14:10.713Z,25
2018-09-19T15:19:10.716Z,24.5
2018-09-19T15:24:10.749Z,24.2
2018-09-19T15:29:10.728Z,24.2
2018-09-19T15:34:12.106Z,24.1
2018-09-19T15:39:11.812Z,24.1
2018-09-19T15:44:24.983Z,24
2018-09-19T15:49:24.571Z,23.7
2018-09-19T15:54:24.601Z,23.7
2018-09-19T15:59:24.800Z,23.6
2018-09-19T16:04:24.581Z,23.5
2018-09-19T16:09:24.651Z,23.4
2018-09-19T16:14:24.517Z,23.2
2018-09-19T16:19:25.846Z,23.1
2018-09-19T16:24:25.570Z,23
2018-09-19T16:29:37.953Z,22.9
2018-09-19T16:34:37.614Z,22.9
2018-09-19T16:39:37.835Z,22.8
2018-09-19T16:44:37.624Z,22.6
2018-09-19T16:49:37.621Z,22.5
2018-09-19T16:54:37.615Z,22.4
2018-09-19T16:59:37.612Z,22.4
2018-09-19T17:04:39.232Z,22.2
2018-09-19T17:09:39.090Z,21.9
2018-09-19T17:14:49.659Z,21.8
2018-09-19T17:19:49.371Z,21.7
2018-09-19T17:24:49.370Z,21.5
2018-09-19T17:29:49.395Z,21.4
2018-09-19T17:34:49.374Z,21.3
2018-09-19T17:39:49.383Z,21.1
2018-09-19T17:44:49.379Z,20.9
2018-09-19T17:49:51.196Z,20.8
2018-09-19T17:54:50.788Z,20.7
2018-09-19T18:00:03.285Z,20.4
2018-09-19T18:05:03.047Z,20.4
2018-09-19T18:10:02.990Z,20.3
2018-09-19T18:15:03.075Z,20.2
2018-09-19T18:20:03.061Z,20.1
2018-09-19T18:25:03.042Z,19.9
2018-09-19T18:30:03.024Z,19.9
2018-09-19T18:35:07.311Z,19.8
2018-09-19T18:40:06.142Z,19.7
2018-09-19T18:45:19.556Z,19.5
2018-09-19T18:50:19.297Z,19.4
2018-09-19T18:55:19.294Z,19.4
2018-09-19T19:00:19.370Z,19.2
2018-09-19T19:05:19.391Z,19.2
2018-09-19T19:10:19.419Z,19.1
2018-09-19T19:15:19.394Z,19
2018-09-19T19:20:19.557Z,19
2018-09-19T19:25:19.384Z,18.8
2018-09-19T19:30:19.481Z,18.7
2018-09-19T19:35:19.450Z,18.7
2018-09-19T19:40:19.483Z,18.6
2018-09-19T19:45:22.936Z,18.6
2018-09-19T19:50:22.870Z,18.5
2018-09-19T19:55:35.006Z,18.3
2018-09-19T20:00:34.728Z,18.3
2018-09-19T20:05:34.714Z,18.3
2018-09-19T20:10:34.754Z,18.2
2018-09-19T20:15:34.756Z,18.3
2018-09-19T20:20:34.762Z,18.2
2018-09-19T20:25:34.746Z,18.2
2018-09-19T20:30:35.823Z,18
2018-09-19T20:35:35.572Z,18.1
2018-09-19T20:40:48.621Z,18
2018-09-19T20:45:48.329Z,18
2018-09-19T20:50:48.550Z,18
2018-09-19T20:55:48.467Z,17.9
2018-09-19T21:00:48.323Z,17.8
2018-09-19T21:05:48.364Z,17.8
2018-09-19T21:10:48.468Z,17.8
2018-09-19T21:15:49.861Z,17.7
2018-09-19T21:20:49.612Z,17.7
2018-09-19T21:26:02.522Z,17.7
2018-09-19T21:31:02.381Z,17.7
2018-09-19T21:36:02.228Z,17.6
2018-09-19T21:41:02.396Z,17.5
2018-09-19T21:46:02.412Z,17.5
2018-09-19T21:51:02.229Z,17.4
2018-09-19T21:56:02.405Z,17.3
2018-09-19T22:01:02.975Z,17.3
2018-09-19T22:06:03.682Z,17.3
2018-09-19T22:11:15.425Z,17.3
2018-09-19T22:16:15.338Z,17.2
2018-09-19T22:21:15.271Z,17.2
2018-09-19T22:26:15.141Z,17
2018-09-19T22:31:15.349Z,17.1
2018-09-19T22:36:15.394Z,17.1
2018-09-19T22:41:15.298Z,17
2018-09-19T22:46:15.143Z,17.1
2018-09-19T22:51:15.168Z,16.8
2018-09-19T22:56:27.123Z,16.9
2018-09-19T23:01:26.789Z,16.7
2018-09-19T23:06:26.937Z,16.6
2018-09-19T23:11:26.829Z,16.6
2018-09-19T23:16:27.006Z,16.5
2018-09-19T23:21:27.001Z,16.4
2018-09-19T23:26:26.990Z,16.4
2018-09-19T23:31:27.110Z,16.4
2018-09-19T23:36:27.364Z,16.3
2018-09-19T23:41:39.756Z,16.2
2018-09-19T23:46:39.611Z,16.2
2018-09-19T23:51:39.493Z,16.2
2018-09-19T23:56:39.495Z,16.2
